Time;durP1;ratioP1;P1;durP2;ratioP2;P2;SDS_P1;SDS_P2;PMS_P1;PMS_P2;Temp;Humidity;BMP_temperature;BMP_pressure;BME280_temperature;BME280_humidity;BME280_pressure;Samples;Min_cycle;Max_cycle;Signal;HPM_P1;HPM_P2
2022/09/01 00:00:47;;;;;;;0.40;0.40;;;;;;;16.42;66.93;102058.81;6201155;28;20046;-80
2022/09/01 00:03:51;;;;;;;2.10;0.63;;;;;;;16.39;67.41;102058.97;6201619;28;20050;-80
2022/09/01 00:06:54;;;;;;;0.40;0.40;;;;;;;16.38;68.09;102057.28;6201220;28;20426;-81
2022/09/01 00:09:55;;;;;;;1.33;0.50;;;;;;;16.34;67.66;102058.41;6200827;28;20178;-80
2022/09/01 00:12:56;;;;;;;0.40;0.32;;;;;;;16.31;68.30;102056.78;6201726;28;20076;-80
2022/09/01 00:15:59;;;;;;;0.55;0.43;;;;;;;16.25;68.22;102070.38;6201125;28;20057;-80
2022/09/01 00:19:01;;;;;;;0.40;0.40;;;;;;;16.23;69.03;102059.00;6201879;28;20505;-80
2022/09/01 00:22:04;;;;;;;6.13;0.50;;;;;;;16.18;69.14;102061.91;6203137;28;20046;-80
2022/09/01 00:25:06;;;;;;;0.68;0.50;;;;;;;16.19;69.21;102070.72;6189046;28;20050;-80
2022/09/01 00:28:08;;;;;;;0.40;0.40;;;;;;;16.14;69.17;102068.34;6197940;28;20391;-80
2022/09/01 00:31:15;;;;;;;0.35;0.35;;;;;;;16.14;69.49;102068.34;6206991;28;20061;-79
2022/09/01 00:34:17;;;;;;;0.60;0.40;;;;;;;16.09;69.83;102069.53;6206948;28;20128;-80
2022/09/01 00:37:18;;;;;;;0.50;0.30;;;;;;;16.06;69.82;102067.03;6219323;28;20046;-79
2022/09/01 00:40:24;;;;;;;0.40;0.40;;;;;;;16.00;70.31;102060.28;6231352;28;20050;-80
2022/09/01 00:43:38;;;;;;;0.30;0.30;;;;;;;15.94;70.25;102076.50;6231492;28;20046;-80
2022/09/01 00:46:44;;;;;;;0.38;0.38;;;;;;;15.91;70.74;102071.41;6209260;28;20053;-80
2022/09/01 00:49:49;;;;;;;0.40;0.40;;;;;;;15.86;71.22;102068.16;6205406;28;20042;-80
2022/09/01 00:52:54;;;;;;;0.88;0.30;;;;;;;15.71;71.89;102062.75;6207860;28;20189;-80
2022/09/01 00:55:56;;;;;;;0.50;0.40;;;;;;;15.68;72.06;102062.03;6210325;28;20046;-80
2022/09/01 00:58:58;;;;;;;0.65;0.57;;;;;;;15.64;72.18;102060.50;6218397;28;20057;-80
2022/09/01 01:02:01;;;;;;;1.25;0.40;;;;;;;15.65;72.61;102059.56;6214356;28;20058;-80
2022/09/01 01:05:04;;;;;;;0.40;0.40;;;;;;;15.60;72.75;102058.91;6209671;28;20045;-80
2022/09/01 01:08:10;;;;;;;0.50;0.40;;;;;;;15.57;73.23;102061.72;6206155;28;20039;-80
2022/09/01 01:11:16;;;;;;;6.40;0.60;;;;;;;15.55;73.39;102059.16;6204521;28;20053;-81
2022/09/01 01:14:18;;;;;;;0.50;0.30;;;;;;;15.52;73.38;102055.81;6199062;28;20129;-80
2022/09/01 01:17:22;;;;;;;1.17;0.60;;;;;;;15.51;74.14;102056.75;6202967;28;20070;-80
2022/09/01 01:23:56;;;;;;;1.77;0.60;;;;;;;15.51;74.51;102052.31;6205176;28;20054;-80
2022/09/01 01:27:00;;;;;;;1.95;0.60;;;;;;;15.49;74.04;102046.25;6209624;28;20049;-80
2022/09/01 01:30:03;;;;;;;0.95;0.47;;;;;;;15.45;74.86;102053.50;6209173;28;20053;-80
2022/09/01 01:33:06;;;;;;;0.40;0.40;;;;;;;15.45;75.11;102057.94;6213740;28;20498;-80
2022/09/01 01:36:11;;;;;;;0.50;0.40;;;;;;;15.44;74.71;102059.72;6218725;28;20050;-80
2022/09/01 01:39:15;;;;;;;0.93;0.50;;;;;;;15.40;75.39;102059.97;6211870;28;20146;-81
2022/09/01 01:42:18;;;;;;;2.47;0.60;;;;;;;15.39;75.27;102064.38;6215174;28;20050;-80
2022/09/01 01:45:22;;;;;;;1.75;0.40;;;;;;;15.33;75.50;102059.44;6218232;28;20061;-81
2022/09/01 01:48:27;;;;;;;0.80;0.50;;;;;;;15.32;75.28;102067.47;6214785;28;20049;-78
2022/09/01 01:51:30;;;;;;;0.40;0.40;;;;;;;15.29;75.96;102068.47;6211075;28;20042;-79
2022/09/01 01:54:32;;;;;;;1.13;0.70;;;;;;;15.28;75.76;102071.19;6201374;28;20043;-79
2022/09/01 01:57:34;;;;;;;0.65;0.60;;;;;;;15.21;76.10;102068.88;6200984;28;20057;-79
2022/09/01 02:00:36;;;;;;;0.50;0.40;;;;;;;15.18;76.41;102068.19;6200868;28;20057;-78
2022/09/01 02:03:38;;;;;;;0.52;0.50;;;;;;;15.13;76.95;102071.06;6200755;28;20137;-78
2022/09/01 02:06:41;;;;;;;0.45;0.40;;;;;;;15.11;76.76;102078.22;6200623;28;20049;-79
2022/09/01 02:09:46;;;;;;;0.65;0.50;;;;;;;15.05;76.89;102073.25;6200221;28;20061;-78
2022/09/01 02:12:49;;;;;;;1.67;0.60;;;;;;;14.98;77.19;102072.69;6200753;28;20169;-78
2022/09/01 02:15:53;;;;;;;4.13;0.40;;;;;;;14.93;78.01;102080.00;6196553;28;20050;-79
2022/09/01 02:18:55;;;;;;;1.23;0.60;;;;;;;14.89;78.44;102077.59;6191019;28;20054;-79
2022/09/01 02:21:58;;;;;;;0.57;0.40;;;;;;;14.82;79.00;102078.84;6182225;28;20519;-79
2022/09/01 02:25:00;;;;;;;1.25;0.50;;;;;;;14.73;79.88;102074.00;6200105;28;20054;-79
2022/09/01 02:28:08;;;;;;;0.43;0.43;;;;;;;14.66;80.69;102076.94;6200059;28;20133;-79
2022/09/01 02:31:11;;;;;;;0.40;0.40;;;;;;;14.57;80.86;102074.75;6195097;28;20070;-78
2022/09/01 02:34:12;;;;;;;0.40;0.40;;;;;;;14.45;81.02;102076.19;6175374;28;20058;-79
2022/09/01 02:37:14;;;;;;;0.63;0.40;;;;;;;14.35;82.12;102079.31;6175707;28;20489;-78
2022/09/01 02:40:16;;;;;;;0.47;0.47;;;;;;;14.34;82.50;102078.47;6183498;28;20429;-78
2022/09/01 02:43:21;;;;;;;1.02;0.70;;;;;;;14.31;82.36;102075.13;6198601;28;20081;-78
2022/09/01 02:46:22;;;;;;;0.70;0.60;;;;;;;14.30;82.66;102068.97;6198892;28;20049;-79
2022/09/01 02:49:24;;;;;;;0.47;0.40;;;;;;;14.26;82.47;102069.19;6199462;28;20113;-80
2022/09/01 02:52:26;;;;;;;0.40;0.40;;;;;;;14.23;83.06;102064.91;6199260;28;20054;-79
2022/09/01 02:55:28;;;;;;;0.77;0.50;;;;;;;14.21;82.95;102066.75;6197308;28;20042;-78
2022/09/01 02:58:32;;;;;;;0.63;0.50;;;;;;;14.17;83.38;102063.41;6199778;28;20053;-79
2022/09/01 03:01:34;;;;;;;0.63;0.38;;;;;;;14.17;83.05;102065.19;6198539;28;20042;-79
2022/09/01 03:04:36;;;;;;;0.40;0.40;;;;;;;14.05;83.34;102065.78;6199131;28;20057;-79
2022/09/01 03:07:41;;;;;;;0.40;0.40;;;;;;;14.01;84.23;102059.78;6199108;28;20520;-79
2022/09/01 03:10:46;;;;;;;0.60;0.60;;;;;;;13.92;83.99;102058.41;6199490;28;20189;-79
2022/09/01 03:13:48;;;;;;;0.30;0.30;;;;;;;13.94;84.13;102063.59;6198633;28;20081;-79
2022/09/01 03:16:50;;;;;;;0.45;0.45;;;;;;;13.88;84.83;102055.97;6199248;28;20054;-79
2022/09/01 03:19:53;;;;;;;1.38;1.27;;;;;;;13.86;84.94;102056.06;6198928;28;20046;-79
2022/09/01 03:22:56;;;;;;;0.68;0.52;;;;;;;13.80;84.74;102055.47;6199143;28;20054;-78
2022/09/01 03:25:58;;;;;;;1.23;0.68;;;;;;;13.67;85.72;102058.69;6198759;28;20055;-80
2022/09/01 03:29:01;;;;;;;1.20;0.50;;;;;;;13.60;86.56;102056.38;6199040;28;20050;-79
2022/09/01 03:32:03;;;;;;;0.90;0.50;;;;;;;13.60;86.85;102059.03;6198268;28;20111;-78
2022/09/01 03:35:08;;;;;;;0.68;0.40;;;;;;;13.53;86.98;102060.22;6198450;28;20054;-78
2022/09/01 03:38:11;;;;;;;7.88;0.63;;;;;;;13.53;86.65;102060.22;6198782;28;20413;-79
2022/09/01 03:41:12;;;;;;;0.40;0.40;;;;;;;13.51;86.66;102057.66;6198932;28;20061;-79
2022/09/01 03:44:15;;;;;;;0.88;0.60;;;;;;;13.52;87.14;102056.72;6198423;28;20050;-80
2022/09/01 03:47:17;;;;;;;0.57;0.57;;;;;;;13.55;86.79;102063.66;6198175;28;20046;-78
2022/09/01 03:50:21;;;;;;;1.48;0.65;;;;;;;13.50;87.43;102053.31;6198274;28;20178;-79
2022/09/01 03:53:26;;;;;;;0.52;0.50;;;;;;;13.49;87.62;102061.28;6198389;28;20050;-79
2022/09/01 03:56:29;;;;;;;1.27;0.68;;;;;;;13.49;88.02;102061.28;6198011;28;20064;-79
2022/09/01 03:59:32;;;;;;;1.98;0.60;;;;;;;13.51;88.03;102055.00;6198270;28;20054;-78
2022/09/01 04:02:33;;;;;;;0.90;0.60;;;;;;;13.50;88.33;102055.94;6196832;28;20053;-79
2022/09/01 04:05:36;;;;;;;0.40;0.40;;;;;;;13.44;88.58;102048.28;6198130;28;20050;-80
2022/09/01 04:08:38;;;;;;;0.82;0.50;;;;;;;13.39;88.31;102047.63;6197896;28;20058;-78
2022/09/01 04:11:40;;;;;;;1.52;0.70;;;;;;;13.41;88.83;102048.44;6190839;28;20046;-79
2022/09/01 04:14:46;;;;;;;0.55;0.50;;;;;;;13.28;88.81;102053.38;6197044;28;20053;-79
2022/09/01 04:18:08;;;;;;;0.90;0.65;;;;;;;13.25;89.52;102060.56;6193172;28;20534;-79
2022/09/01 04:21:11;;;;;;;0.60;0.60;;;;;;;13.20;90.13;102058.97;6196475;28;20073;-78
2022/09/01 04:24:14;;;;;;;1.23;0.63;;;;;;;13.16;90.81;102052.09;6196841;28;20046;-80
2022/09/01 04:27:16;;;;;;;0.80;0.70;;;;;;;13.17;90.50;102060.88;6198149;28;20461;-79
2022/09/01 04:30:19;;;;;;;3.80;1.08;;;;;;;13.15;90.56;102050.38;6197750;28;20438;-79
2022/09/01 04:33:21;;;;;;;0.73;0.73;;;;;;;13.15;90.65;102058.31;6198063;28;20527;-78
2022/09/01 04:36:26;;;;;;;5.88;0.90;;;;;;;13.10;91.21;102056.78;6197895;28;20057;-79
2022/09/01 04:39:28;;;;;;;1.50;0.77;;;;;;;13.13;91.07;102054.03;6198300;28;20050;-80
2022/09/01 04:42:31;;;;;;;1.08;0.70;;;;;;;13.04;90.63;102052.63;6198133;28;20101;-79
2022/09/01 04:45:36;;;;;;;1.35;0.77;;;;;;;13.03;91.92;102061.44;6197748;28;20050;-79
2022/09/01 04:48:41;;;;;;;1.10;0.80;;;;;;;12.98;91.88;102057.31;6197870;28;20046;-78
2022/09/01 04:51:45;;;;;;;1.98;0.65;;;;;;;13.00;92.58;102058.97;6174530;28;21073;-78
2022/09/01 04:54:47;;;;;;;1.13;0.60;;;;;;;13.00;92.74;102064.25;6173673;28;20062;-78
2022/09/01 04:57:49;;;;;;;1.50;0.57;;;;;;;12.97;92.79;102056.44;6173897;28;20047;-79
2022/09/01 05:00:52;;;;;;;1.15;0.60;;;;;;;13.00;93.65;102056.31;6173881;28;20491;-79
2022/09/01 05:04:00;;;;;;;0.77;0.65;;;;;;;12.99;93.01;102053.72;6173474;28;20570;-78
2022/09/01 05:07:04;;;;;;;0.77;0.77;;;;;;;12.93;93.47;102058.34;6173873;28;20058;-79
2022/09/01 05:10:06;;;;;;;1.15;0.80;;;;;;;12.94;94.17;102061.84;6177384;28;20239;-79
2022/09/01 05:13:08;;;;;;;0.80;0.60;;;;;;;12.99;93.59;102064.28;6178148;28;20162;-79
2022/09/01 05:16:13;;;;;;;1.05;0.80;;;;;;;13.03;94.67;102061.44;6177769;28;20527;-78
2022/09/01 05:19:16;;;;;;;1.10;0.80;;;;;;;13.07;94.76;102060.41;6177958;28;20054;-78
2022/09/01 05:22:21;;;;;;;3.20;0.75;;;;;;;13.07;94.43;102062.19;6179527;28;20438;-79
2022/09/01 05:25:23;;;;;;;1.50;0.70;;;;;;;13.10;94.33;102070.00;6200701;28;20053;-79
2022/09/01 05:28:25;;;;;;;1.85;0.70;;;;;;;13.09;94.49;102063.00;6201690;28;20148;-78
2022/09/01 05:31:33;;;;;;;0.68;0.68;;;;;;;13.16;95.26;102064.44;6200845;28;20078;-78
2022/09/01 05:34:37;;;;;;;3.78;0.85;;;;;;;13.18;95.57;102071.38;6201786;28;20054;-78
2022/09/01 05:37:39;;;;;;;2.05;0.70;;;;;;;13.22;94.92;102066.88;6201437;28;20050;-79
2022/09/01 05:40:42;;;;;;;0.75;0.63;;;;;;;13.28;95.30;102073.66;6201325;28;20046;-78
2022/09/01 05:43:50;;;;;;;1.45;0.70;;;;;;;13.33;94.93;102072.53;6200498;28;20154;-78
2022/09/01 05:46:54;;;;;;;0.77;0.70;;;;;;;13.39;95.06;102069.59;6201486;28;20129;-79
2022/09/01 05:49:57;;;;;;;1.38;1.00;;;;;;;13.39;94.73;102060.81;6199290;28;20054;-77
2022/09/01 05:52:58;;;;;;;3.40;0.82;;;;;;;13.42;95.87;102076.53;6199934;28;20097;-78
2022/09/01 05:56:05;;;;;;;0.65;0.65;;;;;;;13.44;96.21;102069.41;6189542;28;20054;-78
2022/09/01 05:59:07;;;;;;;2.17;1.00;;;;;;;13.45;96.75;102079.06;6203240;28;20046;-79
2022/09/01 06:02:11;;;;;;;1.52;0.80;;;;;;;13.51;97.01;102076.13;6202189;28;20038;-78
2022/09/01 06:05:14;;;;;;;1.02;0.88;;;;;;;13.59;97.16;102076.66;6200554;28;20046;-79
2022/09/01 06:08:16;;;;;;;1.00;0.60;;;;;;;13.64;97.40;102072.03;6200833;28;20046;-79
2022/09/01 06:11:18;;;;;;;0.75;0.55;;;;;;;13.71;97.19;102070.81;6200385;28;20140;-78
2022/09/01 06:14:20;;;;;;;2.75;0.85;;;;;;;13.80;97.54;102074.81;6200377;28;20050;-78
2022/09/01 06:17:24;;;;;;;0.57;0.50;;;;;;;13.87;97.31;102076.25;6200859;28;20509;-78
2022/09/01 06:20:26;;;;;;;1.25;0.75;;;;;;;13.94;97.44;102071.53;6199992;28;20073;-79
2022/09/01 06:23:27;;;;;;;0.60;0.60;;;;;;;14.01;97.21;102066.84;6200319;28;20058;-78
2022/09/01 06:26:33;;;;;;;1.55;0.82;;;;;;;14.03;96.82;102067.63;6199669;28;20050;-78
2022/09/01 06:29:36;;;;;;;0.60;0.50;;;;;;;14.10;97.31;102072.56;6200063;28;20054;-78
2022/09/01 06:32:42;;;;;;;0.55;0.55;;;;;;;14.19;96.64;102080.06;6200079;28;20093;-78
2022/09/01 06:35:45;;;;;;;3.33;0.45;;;;;;;14.27;96.39;102077.06;6199052;28;20050;-80
2022/09/01 06:38:50;;;;;;;1.10;1.00;;;;;;;14.35;95.91;102080.19;6199745;28;20510;-79
2022/09/01 06:41:52;;;;;;;0.60;0.60;;;;;;;14.41;96.03;102086.97;6200046;28;20042;-79
2022/09/01 06:44:53;;;;;;;2.67;0.70;;;;;;;14.49;95.89;102091.91;6199974;28;20046;-79
2022/09/01 06:47:56;;;;;;;0.85;0.60;;;;;;;14.55;95.88;102097.78;6202739;28;20056;-78
2022/09/01 06:51:02;;;;;;;0.68;0.68;;;;;;;14.63;95.21;102097.41;6202208;28;20050;-78
2022/09/01 06:54:03;;;;;;;0.75;0.55;;;;;;;14.70;95.07;102104.97;6199497;28;20054;-78
2022/09/01 06:57:05;;;;;;;0.63;0.60;;;;;;;14.75;94.39;102101.22;6199552;28;20042;-79
2022/09/01 07:00:16;;;;;;;1.42;0.77;;;;;;;14.78;94.17;102101.09;6199071;28;20128;-79
2022/09/01 07:03:19;;;;;;;1.33;0.95;;;;;;;14.86;94.13;102101.56;6199286;28;20132;-78
2022/09/01 07:06:23;;;;;;;0.60;0.50;;;;;;;14.92;93.55;102117.16;6198998;28;20050;-78
2022/09/01 07:09:24;;;;;;;0.95;0.70;;;;;;;14.97;93.22;102109.81;6199334;28;20046;-79
2022/09/01 07:12:25;;;;;;;0.70;0.70;;;;;;;15.02;92.68;102114.88;6198795;28;20061;-77
2022/09/01 07:15:29;;;;;;;0.40;0.40;;;;;;;15.09;90.19;102109.22;6191762;28;20054;-79
2022/09/01 07:18:33;;;;;;;1.13;0.60;;;;;;;15.16;90.11;102107.09;6201345;28;20538;-79
2022/09/01 07:21:34;;;;;;;1.27;0.70;;;;;;;15.20;89.86;102104.22;6200464;28;20046;-80
2022/09/01 07:24:36;;;;;;;0.93;0.60;;;;;;;15.23;88.12;102104.06;6180920;28;20566;-79
2022/09/01 07:27:38;;;;;;;2.08;0.57;;;;;;;15.32;85.54;102104.53;6200343;28;20061;-78
2022/09/01 07:30:42;;;;;;;0.43;0.43;;;;;;;15.40;85.52;102110.31;6197961;28;20073;-79
2022/09/01 07:33:48;;;;;;;0.30;0.30;;;;;;;15.49;85.28;102107.19;6180180;28;20430;-79
2022/09/01 07:36:49;;;;;;;0.75;0.50;;;;;;;15.57;83.21;102109.41;6204391;28;20426;-77
2022/09/01 07:39:51;;;;;;;1.90;0.43;;;;;;;15.64;82.58;102100.25;6202537;28;20050;-77
2022/09/01 07:42:56;;;;;;;1.35;0.70;;;;;;;15.69;80.59;102096.41;6204761;28;20050;-77
2022/09/01 07:46:05;;;;;;;1.55;0.57;;;;;;;15.80;79.54;102097.63;6211888;28;20438;-78
2022/09/01 07:49:08;;;;;;;;;;;;;;;15.88;77.97;102108.66;6266543;22;20061;-71
2022/09/01 07:52:10;;;;;;;1.33;0.50;;;;;;;15.91;78.24;102101.41;6213442;28;19944;-71
2022/09/01 07:55:13;;;;;;;0.35;0.35;;;;;;;15.94;77.77;102109.22;6221900;28;20101;-71
2022/09/01 07:58:15;;;;;;;3.03;0.70;;;;;;;15.99;77.43;102108.97;6204181;28;20057;-71
2022/09/01 08:01:18;;;;;;;0.30;0.25;;;;;;;16.11;75.10;102110.06;6197751;28;20050;-72
2022/09/01 08:04:21;;;;;;;0.43;0.43;;;;;;;16.22;71.44;102111.22;6197295;28;20767;-72
2022/09/01 08:07:23;;;;;;;1.05;0.40;;;;;;;16.26;70.25;102109.25;6197836;28;20057;-73
2022/09/01 08:10:24;;;;;;;0.55;0.43;;;;;;;16.34;68.30;102107.00;6197233;28;20054;-73
2022/09/01 08:13:26;;;;;;;0.30;0.30;;;;;;;16.49;64.49;102105.31;6197472;28;20073;-73
2022/09/01 08:16:29;;;;;;;1.05;0.50;;;;;;;16.56;63.54;102109.31;6197196;28;20057;-74
2022/09/01 08:19:31;;;;;;;0.40;0.40;;;;;;;16.58;62.48;102109.22;6197733;28;20046;-73
2022/09/01 08:22:33;;;;;;;7.32;0.40;;;;;;;16.60;63.02;102105.53;6203544;28;20057;-72
2022/09/01 08:25:36;;;;;;;4.00;0.40;;;;;;;16.63;62.83;102110.69;6221179;28;20417;-73
2022/09/01 08:28:38;;;;;;;0.63;0.40;;;;;;;16.72;61.39;102104.03;6221723;28;20053;-72
2022/09/01 08:31:40;;;;;;;0.77;0.57;;;;;;;16.79;60.29;102101.88;6221303;28;20133;-73
2022/09/01 08:34:43;;;;;;;3.25;0.30;;;;;;;16.91;58.93;102109.97;6221517;28;20485;-71
2022/09/01 08:37:44;;;;;;;0.28;0.28;;;;;;;16.96;58.11;102102.59;6221528;28;20107;-72
2022/09/01 08:40:52;;;;;;;0.47;0.30;;;;;;;17.00;57.83;102105.94;6221144;28;20057;-72
2022/09/01 08:44:03;;;;;;;6.10;0.57;;;;;;;17.07;57.08;102093.13;6225063;28;20046;-72
2022/09/01 08:47:08;;;;;;;0.20;0.20;;;;;;;17.16;56.09;102101.41;6226518;28;20056;-72
2022/09/01 08:50:11;;;;;;;0.30;0.20;;;;;;;17.34;55.79;102104.78;6225552;28;20046;-72
2022/09/01 08:53:22;;;;;;;0.40;0.40;;;;;;;17.47;54.95;102094.25;6226235;28;20046;-71
2022/09/01 08:56:23;;;;;;;0.30;0.30;;;;;;;17.54;53.55;102092.94;6223849;28;20062;-71
2022/09/01 08:59:26;;;;;;;0.30;0.30;;;;;;;17.60;54.43;102097.88;6225759;28;20045;-73
2022/09/01 09:02:39;;;;;;;1.52;0.40;;;;;;;17.64;54.80;102101.22;6225449;28;20069;-73
2022/09/01 09:06:03;;;;;;;0.30;0.30;;;;;;;17.63;55.39;102102.16;6225563;28;20049;-72
2022/09/01 09:09:05;;;;;;;3.30;0.50;;;;;;;17.72;55.45;102094.47;6225403;28;20050;-74
2022/09/01 09:12:31;;;;;;;3.15;0.40;;;;;;;17.81;54.39;102097.56;6225421;28;20053;-73
2022/09/01 09:15:40;;;;;;;0.52;0.30;;;;;;;17.91;54.37;102088.03;6225122;28;20061;-74
2022/09/01 09:18:49;;;;;;;0.30;0.30;;;;;;;18.00;53.82;102090.13;6225692;28;20050;-75
2022/09/01 09:21:54;;;;;;;2.38;0.30;;;;;;;18.08;53.66;102082.50;6224948;28;20184;-74
2022/09/01 09:25:02;;;;;;;1.08;0.82;;;;;;;18.13;54.25;102077.75;6225394;28;20054;-73
2022/09/01 09:28:03;;;;;;;0.85;0.35;;;;;;;18.43;53.00;102080.22;6225353;28;20057;-74
2022/09/01 09:31:37;;;;;;;0.88;0.30;;;;;;;18.39;53.44;102075.19;6224905;28;20124;-74
2022/09/01 09:34:41;;;;;;;0.38;0.30;;;;;;;18.37;53.59;102074.47;6150183;28;20051;-76
2022/09/01 09:37:44;;;;;;;0.25;0.25;;;;;;;18.54;51.18;102071.56;6225044;28;20057;-72
2022/09/01 09:40:57;;;;;;;0.57;0.28;;;;;;;18.60;51.39;102078.28;6224779;28;20060;-75
2022/09/01 09:44:03;;;;;;;0.30;0.30;;;;;;;18.70;51.52;102076.72;6224624;28;20050;-75
2022/09/01 09:47:05;;;;;;;1.33;0.28;;;;;;;18.86;50.46;102071.25;6225245;28;20502;-75
2022/09/01 09:50:21;;;;;;;0.55;0.47;;;;;;;18.91;50.61;102071.78;6224183;28;20049;-75
2022/09/01 09:53:29;;;;;;;0.30;0.30;;;;;;;18.95;50.46;102071.50;6224150;28;20053;-76
2022/09/01 09:56:31;;;;;;;0.30;0.30;;;;;;;18.98;49.32;102070.41;6224305;28;20057;-77
2022/09/01 09:59:37;;;;;;;0.15;0.10;;;;;;;19.10;48.64;102063.41;6224649;28;20497;-75
2022/09/01 10:02:40;;;;;;;0.40;0.30;;;;;;;19.10;48.53;102066.91;6224463;28;20061;-75
2022/09/01 10:05:43;;;;;;;1.58;0.30;;;;;;;19.25;47.16;102057.84;6224124;28;20057;-76
2022/09/01 10:08:46;;;;;;;0.47;0.30;;;;;;;19.32;47.06;102050.31;6224713;28;20140;-76
2022/09/01 10:11:51;;;;;;;0.20;0.20;;;;;;;19.45;47.21;102048.50;6223852;28;20050;-75
2022/09/01 10:14:56;;;;;;;0.30;0.30;;;;;;;19.50;46.34;102043.69;6223910;28;20057;-75
2022/09/01 10:18:01;;;;;;;1.27;0.40;;;;;;;19.57;44.84;102038.75;6224042;28;20054;-77
2022/09/01 10:21:08;;;;;;;0.70;0.22;;;;;;;19.66;45.88;102032.81;6223862;28;20495;-75
2022/09/01 10:24:19;;;;;;;0.15;0.13;;;;;;;19.77;45.98;102035.56;6204094;28;20050;-77
2022/09/01 10:27:25;;;;;;;0.57;0.30;;;;;;;19.99;45.12;102037.56;6224015;28;20134;-75
2022/09/01 10:30:28;;;;;;;0.20;0.20;;;;;;;19.97;45.03;102030.63;6223207;28;20046;-75
2022/09/01 10:33:30;;;;;;;0.32;0.28;;;;;;;20.12;44.82;102024.19;6223864;28;20057;-75
2022/09/01 10:36:32;;;;;;;0.88;0.50;;;;;;;20.17;44.09;102023.84;6223226;28;20050;-75
2022/09/01 10:40:27;;;;;;;1.02;0.30;;;;;;;20.24;43.52;102025.91;6223623;28;20050;-74
2022/09/01 10:43:40;;;;;;;0.20;0.20;;;;;;;20.30;43.53;102029.09;6148367;28;20058;-75
2022/09/01 10:46:44;;;;;;;0.28;0.28;;;;;;;20.35;42.99;102026.94;6223517;28;20049;-76
2022/09/01 10:50:02;;;;;;;0.65;0.35;;;;;;;20.39;42.89;102020.41;6222899;28;20511;-76
2022/09/01 10:53:06;;;;;;;0.25;0.25;;;;;;;20.43;43.45;102016.53;6223261;28;20417;-75
2022/09/01 10:56:12;;;;;;;0.30;0.30;;;;;;;20.57;43.78;102023.56;6223089;28;20054;-75
2022/09/01 10:59:26;;;;;;;0.38;0.28;;;;;;;20.84;42.49;102007.25;6223020;28;20049;-75
2022/09/01 11:02:28;;;;;;;0.30;0.30;;;;;;;20.99;41.91;102014.09;6223044;28;20049;-76
2022/09/01 11:05:59;;;;;;;0.15;0.15;;;;;;;21.05;41.44;102004.75;6222546;28;20065;-76
2022/09/01 11:09:04;;;;;;;0.30;0.28;;;;;;;21.27;41.22;101994.94;6222915;28;20498;-76
2022/09/01 11:12:18;;;;;;;0.30;0.30;;;;;;;21.46;41.04;101997.03;6222846;28;20049;-76
2022/09/01 11:15:38;;;;;;;0.68;0.20;;;;;;;21.57;40.76;102006.03;6222520;28;20046;-73
2022/09/01 11:18:40;;;;;;;0.30;0.30;;;;;;;21.33;40.02;102001.66;6223026;28;20050;-76
2022/09/01 11:21:42;;;;;;;0.30;0.30;;;;;;;21.42;40.54;101998.25;6222454;28;20082;-73
2022/09/01 11:25:09;;;;;;;0.28;0.20;;;;;;;21.73;39.80;101995.81;6222199;28;20049;-73
2022/09/01 11:28:36;;;;;;;0.32;0.30;;;;;;;21.83;38.79;102003.94;6208520;28;20054;-74
2022/09/01 11:31:43;;;;;;;0.20;0.20;;;;;;;21.59;39.29;102004.94;6222430;28;20054;-74
2022/09/01 11:34:48;;;;;;;0.93;0.20;;;;;;;21.43;39.40;101997.25;6222137;28;20054;-74
2022/09/01 11:37:52;;;;;;;0.28;0.28;;;;;;;21.30;40.23;101993.81;6222302;28;20399;-74
2022/09/01 11:40:55;;;;;;;0.30;0.30;;;;;;;21.89;38.41;101993.59;6222007;28;20049;-74
2022/09/01 11:43:58;;;;;;;0.50;0.38;;;;;;;22.00;38.53;101990.88;6222120;28;20057;-72
2022/09/01 11:47:04;;;;;;;0.30;0.30;;;;;;;21.93;38.49;101988.81;6222359;28;20081;-73
2022/09/01 11:50:08;;;;;;;0.32;0.20;;;;;;;21.62;39.72;101987.78;6224049;28;20042;-74
2022/09/01 11:53:13;;;;;;;1.60;0.38;;;;;;;21.40;39.68;101991.34;6231921;28;20421;-72
2022/09/01 11:56:17;;;;;;;0.38;0.20;;;;;;;21.18;40.15;101984.13;6240494;28;20053;-73
2022/09/01 11:59:33;;;;;;;0.25;0.25;;;;;;;21.66;40.66;101987.41;6221880;28;20072;-73
2022/09/01 12:02:43;;;;;;;0.30;0.30;;;;;;;22.22;38.43;101975.75;6222054;28;20049;-74
2022/09/01 12:05:48;;;;;;;0.20;0.20;;;;;;;22.12;38.16;101981.03;6221646;28;20056;-73
2022/09/01 12:08:56;;;;;;;0.55;0.30;;;;;;;21.79;38.03;101977.41;6221907;28;20424;-73
2022/09/01 12:11:57;;;;;;;0.22;0.20;;;;;;;21.61;38.56;101976.22;6221489;28;20046;-74
2022/09/01 12:15:01;;;;;;;0.20;0.20;;;;;;;22.13;37.98;101973.84;6221664;28;20646;-73
2022/09/01 12:18:14;;;;;;;0.40;0.20;;;;;;;22.78;37.59;101964.75;6224662;28;20057;-73
2022/09/01 12:21:20;;;;;;;0.40;0.30;;;;;;;23.59;36.50;101972.94;6226775;28;20053;-74
2022/09/01 12:24:24;;;;;;;0.55;0.30;;;;;;;24.13;35.23;101963.59;6226307;28;20046;-72
2022/09/01 12:27:26;;;;;;;0.30;0.30;;;;;;;24.60;33.78;101966.44;6226187;28;20057;-74
2022/09/01 12:30:28;;;;;;;0.20;0.20;;;;;;;24.57;33.69;101948.72;6225986;28;20041;-75
2022/09/01 12:33:32;;;;;;;0.20;0.20;;;;;;;24.22;34.86;101966.28;6226353;28;20060;-74
2022/09/01 12:36:35;;;;;;;0.20;0.20;;;;;;;24.19;35.30;101961.19;6228339;28;20041;-74
2022/09/01 12:39:39;;;;;;;0.60;0.30;;;;;;;24.38;34.36;101954.97;6237827;28;20050;-73
2022/09/01 12:42:49;;;;;;;0.20;0.20;;;;;;;23.98;34.70;101965.81;6233172;28;20045;-74
2022/09/01 12:45:51;;;;;;;0.10;0.10;;;;;;;23.50;34.90;101947.75;6229539;28;20417;-75
2022/09/01 12:48:53;;;;;;;0.35;0.35;;;;;;;23.38;35.50;101948.84;6226037;28;20058;-74
2022/09/01 12:52:07;;;;;;;0.30;0.22;;;;;;;23.49;35.29;101952.28;6225727;28;20050;-73
2022/09/01 12:55:15;;;;;;;1.45;0.25;;;;;;;23.91;35.29;101953.97;6225885;28;20524;-74
2022/09/01 12:58:21;;;;;;;0.52;0.30;;;;;;;24.50;34.71;101953.00;6225686;28;20054;-74
2022/09/01 13:01:32;;;;;;;1.15;0.20;;;;;;;24.53;34.04;101940.13;6225692;28;20070;-75
2022/09/01 13:04:34;;;;;;;0.47;0.40;;;;;;;24.68;34.54;101947.75;6225358;28;20529;-75
2022/09/01 13:07:36;;;;;;;0.57;0.22;;;;;;;24.18;34.44;101950.59;6226037;28;20505;-74
2022/09/01 13:10:40;;;;;;;0.47;0.43;;;;;;;23.69;34.79;101947.00;6225083;28;20053;-74
2022/09/01 13:13:41;;;;;;;0.55;0.25;;;;;;;23.29;35.22;101937.09;6225296;28;20486;-75
2022/09/01 13:16:43;;;;;;;0.52;0.28;;;;;;;23.04;36.29;101939.25;6225413;28;20061;-72
2022/09/01 13:19:45;;;;;;;0.25;0.25;;;;;;;23.26;36.40;101932.84;6225265;28;20061;-72
2022/09/01 13:22:47;;;;;;;0.20;0.20;;;;;;;24.03;35.60;101931.38;6225217;28;20426;-73
2022/09/01 13:25:48;;;;;;;0.32;0.28;;;;;;;24.49;34.38;101927.13;6225145;28;20139;-74
2022/09/01 13:28:50;;;;;;;0.20;0.20;;;;;;;24.75;33.83;101925.53;6224126;28;20502;-75
2022/09/01 13:31:51;;;;;;;0.13;0.13;;;;;;;24.58;33.36;101920.03;6224714;28;20512;-76
2022/09/01 13:34:54;;;;;;;0.10;0.10;;;;;;;24.18;34.25;101915.66;6225014;28;20057;-73
2022/09/01 13:37:55;;;;;;;0.32;0.20;;;;;;;23.94;34.28;101919.63;6205183;28;20498;-75
2022/09/01 13:40:57;;;;;;;0.30;0.30;;;;;;;23.54;34.76;101912.47;6200548;28;20053;-72
2022/09/01 13:43:59;;;;;;;0.35;0.17;;;;;;;23.74;35.26;101902.63;6200292;28;20055;-74
2022/09/01 13:47:00;;;;;;;1.75;0.30;;;;;;;24.45;33.85;101899.69;6200708;28;20486;-73
2022/09/01 13:50:03;;;;;;;0.17;0.17;;;;;;;25.06;33.39;101901.03;6243067;23;20049;-79
2022/09/01 13:53:06;;;;;;;0.10;0.10;;;;;;;25.18;31.91;101905.28;6203120;28;20154;-80
2022/09/01 13:56:07;;;;;;;0.00;0.00;;;;;;;24.81;33.02;101899.88;6207637;28;20050;-81
2022/09/01 13:59:08;;;;;;;0.10;0.10;;;;;;;24.70;32.94;101897.34;6191053;28;20053;-79
2022/09/01 14:02:10;;;;;;;0.80;0.22;;;;;;;24.48;33.12;101893.16;6218269;28;20045;-79
2022/09/01 14:05:13;;;;;;;0.20;0.20;;;;;;;24.30;33.83;101899.25;6213166;28;20123;-79
2022/09/01 14:08:16;;;;;;;0.28;0.20;;;;;;;24.24;32.81;101891.75;6231140;28;20048;-78
2022/09/01 14:11:18;;;;;;;1.55;0.20;;;;;;;24.13;32.78;101896.44;6228674;28;20056;-78
2022/09/01 14:14:20;;;;;;;4.53;0.95;;;;;;;23.98;31.84;101891.50;6227337;28;20148;-79
2022/09/01 14:17:22;;;;;;;0.50;0.30;;;;;;;24.30;32.36;101879.59;6214183;28;20042;-80
2022/09/01 14:20:28;;;;;;;0.25;0.20;;;;;;;24.67;31.77;101878.84;6202520;28;20057;-79